Time;durP1;ratioP1;P1;durP2;ratioP2;P2;SDS_P1;SDS_P2;PMS_P1;PMS_P2;Temp;Humidity;BMP_temperature;BMP_pressure;BME280_temperature;BME280_humidity;BME280_pressure;Samples;Min_cycle;Max_cycle;Signal;HPM_P1;HPM_P2
2023/04/01 00:01:51;;;;;;;10.55;5.30;;;;;;;11.61;nan;99375.44;4986139;28;20030;-73
2023/04/01 00:04:17;;;;;;;11.82;5.32;;;;;;;11.87;nan;99407.22;4989041;28;20037;-73
2023/04/01 00:06:42;;;;;;;8.98;5.22;;;;;;;11.54;nan;99351.16;4990330;28;20800;-73
2023/04/01 00:09:08;;;;;;;10.20;5.25;;;;;;;11.60;nan;99354.59;4989698;28;20489;-74
2023/04/01 00:11:33;;;;;;;10.95;5.50;;;;;;;11.52;nan;99342.69;4989042;28;20027;-73
2023/04/01 00:13:59;;;;;;;9.63;5.10;;;;;;;11.49;nan;99335.28;4989585;28;20034;-73
2023/04/01 00:16:24;;;;;;;14.23;5.40;;;;;;;11.57;nan;99332.16;4989657;28;20040;-73
2023/04/01 00:18:51;;;;;;;12.60;5.53;;;;;;;11.66;nan;99332.44;4989329;28;20053;-74
2023/04/01 00:21:16;;;;;;;11.70;5.60;;;;;;;11.52;nan;99315.50;4987874;28;20069;-74
2023/04/01 00:23:43;;;;;;;12.60;5.88;;;;;;;11.57;nan;99323.47;4985883;28;20062;-74
2023/04/01 00:26:09;;;;;;;18.00;5.72;;;;;;;11.63;nan;99314.50;4989848;28;20041;-71
2023/04/01 00:28:35;;;;;;;13.32;6.10;;;;;;;11.54;nan;99311.59;4989505;28;20106;-71
2023/04/01 00:31:08;;;;;;;11.80;5.28;;;;;;;11.51;nan;99306.81;4988443;28;20058;-71
2023/04/01 00:33:33;;;;;;;12.05;5.80;;;;;;;11.46;nan;99302.31;4987294;28;20026;-71
2023/04/01 00:36:13;;;;;;;11.30;6.45;;;;;;;11.42;nan;99292.53;4989422;28;20108;-71
2023/04/01 00:38:40;;;;;;;12.02;6.78;;;;;;;11.36;nan;99288.31;4986409;28;20034;-71
2023/04/01 00:41:06;;;;;;;13.43;7.22;;;;;;;11.39;nan;99306.25;4986373;28;20476;-71
2023/04/01 00:43:32;;;;;;;13.45;6.53;;;;;;;11.41;nan;99312.84;4989025;28;20084;-71
2023/04/01 00:45:57;;;;;;;14.63;7.32;;;;;;;11.39;nan;99298.34;4991448;28;20026;-72
2023/04/01 00:48:26;;;;;;;13.57;6.75;;;;;;;11.42;nan;99296.00;4987231;28;20033;-71
2023/04/01 00:51:05;;;;;;;11.45;7.07;;;;;;;11.32;nan;99274.06;4987965;28;20026;-71
2023/04/01 00:53:34;;;;;;;11.88;7.30;;;;;;;11.38;nan;99294.13;4990308;28;20038;-71
2023/04/01 00:56:05;;;;;;;14.77;6.95;;;;;;;11.39;nan;99288.56;4991751;28;20101;-71
2023/04/01 00:58:35;;;;;;;11.45;7.13;;;;;;;11.41;nan;99288.34;4986971;28;20133;-74
2023/04/01 01:01:01;;;;;;;12.40;7.47;;;;;;;11.38;nan;99280.94;5005899;28;20389;-74
2023/04/01 01:03:27;;;;;;;16.05;7.18;;;;;;;11.41;nan;99290.97;4993267;28;20026;-74
2023/04/01 01:05:59;;;;;;;10.85;7.28;;;;;;;11.39;nan;99278.03;4989453;28;20122;-74
2023/04/01 01:08:56;;;;;;;13.65;6.90;;;;;;;11.40;nan;99277.00;4981396;28;20144;-74
2023/04/01 01:11:31;;;;;;;12.68;7.22;;;;;;;11.41;nan;99286.47;4990466;28;20463;-73
2023/04/01 01:14:03;;;;;;;12.70;7.47;;;;;;;11.43;nan;99288.88;4988563;28;20054;-73
2023/04/01 01:16:39;;;;;;;13.57;7.30;;;;;;;11.15;nan;99240.00;4990839;28;20612;-74
2023/04/01 01:19:43;;;;;;;15.30;9.00;;;;;;;11.31;nan;99265.38;4988733;28;20076;-73
2023/04/01 01:22:12;;;;;;;19.73;9.48;;;;;;;11.40;nan;99287.53;4978060;28;20030;-73
2023/04/01 01:24:56;;;;;;;16.85;9.13;;;;;;;11.38;nan;99275.69;4989759;28;20152;-72
2023/04/01 01:27:22;;;;;;;15.40;8.68;;;;;;;11.37;nan;99274.06;4987639;28;20024;-73
2023/04/01 01:29:59;;;;;;;11.27;8.63;;;;;;;11.36;nan;99267.22;4988232;28;20097;-72
2023/04/01 01:33:02;;;;;;;13.80;8.30;;;;;;;11.31;nan;99262.72;4981235;28;20077;-73
2023/04/01 01:35:33;;;;;;;15.77;9.25;;;;;;;11.28;nan;99252.72;4988677;28;20120;-72
2023/04/01 01:38:03;;;;;;;17.98;9.15;;;;;;;11.18;nan;99242.91;4987151;28;20532;-73
2023/04/01 01:40:33;;;;;;;12.50;7.80;;;;;;;11.21;nan;99246.88;4985585;28;20137;-73
2023/04/01 01:43:07;;;;;;;13.57;8.27;;;;;;;11.14;nan;99248.97;4987103;28;20039;-72
2023/04/01 01:45:35;;;;;;;13.18;8.02;;;;;;;11.15;nan;99258.44;4988151;28;20083;-73
2023/04/01 01:48:04;;;;;;;16.02;8.45;;;;;;;11.10;nan;99248.66;4989797;28;20023;-72
2023/04/01 01:50:31;;;;;;;16.75;8.80;;;;;;;11.10;nan;99248.66;4990170;28;20033;-73
2023/04/01 01:53:08;;;;;;;13.48;8.20;;;;;;;11.09;nan;99252.34;4987167;28;20528;-73
2023/04/01 01:55:45;;;;;;;16.95;8.73;;;;;;;11.09;nan;99251.56;4989507;28;20393;-73
2023/04/01 01:58:42;;;;;;;17.92;9.18;;;;;;;11.07;nan;99243.91;4987031;28;20026;-73
2023/04/01 02:01:19;;;;;;;14.45;8.50;;;;;;;10.99;nan;99241.75;4966950;28;20528;-73
2023/04/01 02:03:46;;;;;;;16.02;8.60;;;;;;;10.94;nan;99234.63;4994333;28;20033;-72
2023/04/01 02:06:16;;;;;;;13.77;7.88;;;;;;;10.96;nan;99244.91;4991087;28;20030;-73
2023/04/01 02:08:47;;;;;;;14.10;7.93;;;;;;;10.94;nan;99247.00;4989624;28;20572;-73
2023/04/01 02:11:15;;;;;;;14.20;7.63;;;;;;;10.98;nan;99262.03;4987816;28;20509;-73
2023/04/01 02:14:06;;;;;;;11.63;7.95;;;;;;;10.85;nan;99233.53;4987899;28;20054;-73
2023/04/01 02:16:39;;;;;;;13.02;8.50;;;;;;;10.95;nan;99256.50;4987278;28;20038;-72
2023/04/01 02:19:09;;;;;;;16.95;8.20;;;;;;;10.86;nan;99248.28;4987907;28;21299;-73
2023/04/01 02:21:36;;;;;;;13.35;7.60;;;;;;;10.91;nan;99256.19;4988323;28;20033;-73
2023/04/01 02:24:07;;;;;;;12.23;8.63;;;;;;;10.89;nan;99241.69;4989703;28;20041;-73
2023/04/01 02:26:32;;;;;;;13.07;8.38;;;;;;;10.83;nan;99244.31;4989396;28;20030;-73
2023/04/01 02:29:04;;;;;;;16.17;8.90;;;;;;;10.85;nan;99252.75;4990555;28;20548;-74
2023/04/01 02:31:31;;;;;;;20.27;8.90;;;;;;;10.76;nan;99235.06;4979690;28;20042;-73
2023/04/01 02:33:57;;;;;;;15.23;8.20;;;;;;;10.71;nan;99222.66;4990318;28;20075;-73
2023/04/01 02:36:23;;;;;;;15.55;8.88;;;;;;;10.73;nan;99241.63;4987590;28;20034;-73
2023/04/01 02:38:50;;;;;;;12.93;8.20;;;;;;;10.77;nan;99252.44;4989376;28;20082;-73
2023/04/01 02:41:16;;;;;;;15.85;8.93;;;;;;;10.71;nan;99256.88;4990516;28;20389;-73
2023/04/01 02:43:41;;;;;;;16.15;8.50;;;;;;;10.70;nan;99252.63;4988425;28;20045;-73
2023/04/01 02:46:07;;;;;;;14.27;8.05;;;;;;;10.71;nan;99272.69;4986028;28;20670;-73
2023/04/01 02:48:32;;;;;;;12.68;8.05;;;;;;;10.63;nan;99276.56;4987503;28;20531;-72
2023/04/01 02:50:58;;;;;;;14.20;8.32;;;;;;;10.67;nan;99290.00;4986733;28;20058;-73
2023/04/01 02:53:23;;;;;;;13.15;7.68;;;;;;;10.66;nan;99298.19;4986252;28;20037;-73
2023/04/01 02:55:50;;;;;;;17.80;8.25;;;;;;;10.60;nan;99294.69;4990758;28;20025;-74
2023/04/01 02:58:16;;;;;;;14.20;8.38;;;;;;;10.56;nan;99289.16;4987091;28;20034;-73
2023/04/01 03:00:42;;;;;;;16.13;8.77;;;;;;;10.58;nan;99288.88;4986701;28;20023;-73
2023/04/01 03:03:07;;;;;;;17.30;9.13;;;;;;;10.60;nan;99294.69;4988312;28;20037;-73
2023/04/01 03:05:33;;;;;;;16.10;8.68;;;;;;;10.54;nan;99278.09;4988642;28;20026;-74
2023/04/01 03:07:58;;;;;;;19.42;9.40;;;;;;;10.54;nan;99275.44;4984399;28;20141;-74
2023/04/01 03:10:24;;;;;;;17.17;9.40;;;;;;;10.57;nan;99267.03;4983194;28;20057;-74
2023/04/01 03:12:49;;;;;;;13.38;9.05;;;;;;;10.61;nan;99262.09;4986851;28;20225;-74
2023/04/01 03:15:15;;;;;;;14.80;8.05;;;;;;;10.63;nan;99263.41;4987150;28;20049;-74
2023/04/01 03:17:41;;;;;;;14.38;8.07;;;;;;;10.60;nan;99261.25;4984078;28;20034;-74
2023/04/01 03:20:08;;;;;;;15.35;8.52;;;;;;;10.58;nan;99254.66;4983766;28;20089;-73
2023/04/01 03:22:35;;;;;;;14.18;8.48;;;;;;;10.67;nan;99268.94;4983550;28;20143;-74
2023/04/01 03:25:01;;;;;;;15.85;9.35;;;;;;;10.67;nan;99265.53;4986671;28;20073;-74
2023/04/01 03:27:26;;;;;;;18.63;9.07;;;;;;;10.53;nan;99249.38;4988443;28;20117;-74
2023/04/01 03:29:51;;;;;;;20.42;9.70;;;;;;;10.72;nan;99282.16;4989433;28;20108;-74
2023/04/01 03:32:17;;;;;;;17.92;8.95;;;;;;;10.66;nan;99277.91;4983968;28;20081;-74
2023/04/01 03:34:42;;;;;;;16.73;8.98;;;;;;;10.64;nan;99280.00;4985826;28;20057;-74
2023/04/01 03:37:08;;;;;;;18.58;8.65;;;;;;;10.70;nan;99286.88;4990137;28;20034;-74
2023/04/01 03:39:33;;;;;;;16.27;8.57;;;;;;;10.62;nan;99285.50;4990808;28;20477;-74
2023/04/01 03:41:58;;;;;;;15.55;8.20;;;;;;;10.60;nan;99292.84;4991080;28;20030;-74
2023/04/01 03:44:24;;;;;;;14.43;8.27;;;;;;;10.64;nan;99293.94;4995087;28;20033;-74
2023/04/01 03:46:50;;;;;;;15.80;7.88;;;;;;;10.70;nan;99294.75;4991194;28;20042;-74
2023/04/01 03:49:15;;;;;;;16.85;7.30;;;;;;;10.70;nan;99294.75;4989756;28;20022;-74
2023/04/01 03:51:42;;;;;;;18.90;8.23;;;;;;;10.68;nan;99288.97;4987607;28;20118;-74
2023/04/01 03:54:08;;;;;;;13.27;7.45;;;;;;;10.60;nan;99281.53;4992739;28;20524;-74
2023/04/01 03:56:34;;;;;;;15.82;7.47;;;;;;;10.56;nan;99285.72;4988879;28;20026;-74
2023/04/01 03:59:03;;;;;;;13.43;7.20;;;;;;;10.62;nan;99288.13;4991239;28;20022;-74
2023/04/01 04:01:29;;;;;;;11.80;7.47;;;;;;;10.59;nan;99282.59;4988423;28;20353;-74
2023/04/01 04:03:56;;;;;;;15.25;7.60;;;;;;;10.62;nan;99293.41;4990686;28;20030;-74
2023/04/01 04:06:22;;;;;;;9.82;7.03;;;;;;;10.62;nan;99285.50;4987475;28;20084;-74
2023/04/01 04:08:49;;;;;;;16.83;8.15;;;;;;;10.56;nan;99269.91;4993372;28;20122;-74
2023/04/01 04:11:14;;;;;;;11.57;7.82;;;;;;;10.50;nan;99253.31;4993524;28;20374;-74
2023/04/01 04:13:40;;;;;;;16.83;8.40;;;;;;;10.43;nan;99242.97;4990712;28;20105;-75
2023/04/01 04:16:06;;;;;;;11.70;8.05;;;;;;;10.41;nan;99247.72;4990096;28;20080;-74
2023/04/01 04:18:32;;;;;;;16.77;7.70;;;;;;;10.57;nan;99274.16;4993021;28;20048;-75
2023/04/01 04:20:58;;;;;;;12.38;7.70;;;;;;;10.47;nan;99253.03;4989555;28;20030;-75
2023/04/01 04:23:23;;;;;;;17.83;9.07;;;;;;;10.43;nan;99250.88;4994006;28;20125;-74
2023/04/01 04:26:04;;;;;;;13.77;8.07;;;;;;;10.52;nan;99263.59;4992529;28;20374;-74
2023/04/01 04:28:30;;;;;;;15.07;7.93;;;;;;;10.45;nan;99257.75;4987860;28;20026;-75
2023/04/01 04:30:55;;;;;;;13.43;8.05;;;;;;;10.43;nan;99258.78;4989303;28;20117;-75
2023/04/01 04:33:22;;;;;;;17.33;7.65;;;;;;;10.48;nan;99263.28;4992302;28;20030;-75
2023/04/01 04:35:48;;;;;;;14.57;8.32;;;;;;;10.40;nan;99255.88;4991770;28;20026;-74
2023/04/01 04:38:13;;;;;;;16.65;8.38;;;;;;;10.47;nan;99263.56;4990945;28;20104;-75
2023/04/01 04:40:40;;;;;;;18.88;8.77;;;;;;;10.40;nan;99255.88;4988726;28;20113;-75
2023/04/01 04:43:06;;;;;;;14.85;8.60;;;;;;;10.46;nan;99262.75;4990715;28;20038;-74
2023/04/01 04:45:32;;;;;;;13.77;8.65;;;;;;;10.44;nan;99256.97;4988080;28;20029;-74
2023/04/01 04:47:57;;;;;;;15.90;9.20;;;;;;;10.42;nan;99251.94;4988435;28;20044;-75
2023/04/01 04:50:23;;;;;;;18.02;9.65;;;;;;;10.50;nan;99255.94;4988432;28;20037;-74
2023/04/01 04:52:49;;;;;;;12.88;8.43;;;;;;;10.22;nan;99212.28;4987941;28;20080;-75
2023/04/01 04:55:15;;;;;;;17.15;9.63;;;;;;;10.49;nan;99257.00;4988720;28;20034;-74
2023/04/01 04:57:40;;;;;;;15.18;9.18;;;;;;;10.42;nan;99227.47;4987902;28;20026;-75
2023/04/01 05:00:07;;;;;;;18.23;9.43;;;;;;;10.54;nan;99250.97;4988726;28;20066;-74
2023/04/01 05:02:32;;;;;;;17.00;9.63;;;;;;;10.46;nan;99233.78;4988989;28;20029;-72
2023/04/01 05:04:58;;;;;;;20.85;9.88;;;;;;;10.53;nan;99239.63;4986080;28;20030;-72
2023/04/01 05:07:23;;;;;;;15.48;8.77;;;;;;;10.37;nan;99216.91;4987994;28;20057;-72
2023/04/01 05:09:49;;;;;;;16.88;8.85;;;;;;;10.42;nan;99227.47;4987770;28;20144;-72
2023/04/01 05:12:15;;;;;;;15.68;9.02;;;;;;;10.44;nan;99233.28;4986153;28;20817;-71
2023/04/01 05:14:40;;;;;;;13.95;8.48;;;;;;;10.48;nan;99242.22;4984920;28;20045;-72
2023/04/01 05:17:10;;;;;;;16.73;9.30;;;;;;;10.42;nan;99245.88;4988099;28;20026;-72
2023/04/01 05:19:35;;;;;;;19.23;8.30;;;;;;;10.39;nan;99249.81;4988173;28;20030;-73
2023/04/01 05:22:00;;;;;;;16.23;8.75;;;;;;;10.36;nan;99252.94;4988001;28;20049;-72
2023/04/01 05:24:26;;;;;;;17.08;9.30;;;;;;;10.37;nan;99254.53;4988106;28;20060;-74
2023/04/01 05:26:51;;;;;;;17.80;9.32;;;;;;;10.21;nan;99227.25;4985967;28;20116;-73
2023/04/01 05:29:16;;;;;;;21.42;10.25;;;;;;;10.23;nan;99221.75;4987586;28;20418;-74
2023/04/01 05:31:42;;;;;;;19.77;9.82;;;;;;;10.29;nan;99210.25;4985634;28;20042;-74
2023/04/01 05:34:07;;;;;;;14.35;9.10;;;;;;;10.55;nan;99242.03;4987658;28;20097;-74
2023/04/01 05:36:33;;;;;;;17.25;10.27;;;;;;;10.65;nan;99239.44;4989154;28;20357;-74
2023/04/01 05:38:58;;;;;;;23.77;14.43;;;;;;;10.81;nan;99230.59;4986704;28;20038;-72
2023/04/01 05:41:24;;;;;;;23.35;13.07;;;;;;;10.86;nan;99214.81;4989145;28;20037;-72
2023/04/01 05:43:49;;;;;;;37.78;23.33;;;;;;;11.04;nan;99221.50;4988274;28;20038;-72
2023/04/01 05:46:15;;;;;;;105.15;51.42;;;;;;;11.20;nan;99232.88;4986512;28;20022;-72
2023/04/01 05:48:40;;;;;;;78.22;39.15;;;;;;;11.21;nan;99215.25;4986094;28;20661;-72
2023/04/01 05:51:06;;;;;;;47.28;27.30;;;;;;;11.34;nan;99216.63;4985998;28;20038;-72
2023/04/01 05:53:31;;;;;;;26.58;15.15;;;;;;;11.40;nan;99218.22;4986948;28;20072;-72
2023/04/01 05:55:56;;;;;;;26.08;15.82;;;;;;;11.40;nan;99210.31;4990146;28;20068;-72
2023/04/01 05:58:22;;;;;;;18.70;11.18;;;;;;;11.39;nan;99195.53;4989300;28;20034;-71
2023/04/01 06:00:47;;;;;;;14.70;9.32;;;;;;;11.39;nan;99196.31;4989876;28;20077;-71
2023/04/01 06:03:13;;;;;;;15.50;8.77;;;;;;;11.38;nan;99201.88;4990587;28;20508;-73
2023/04/01 06:05:43;;;;;;;17.13;9.02;;;;;;;11.37;nan;99208.19;4985861;28;20469;-72
2023/04/01 06:08:15;;;;;;;17.33;10.00;;;;;;;11.34;nan;99206.84;4987084;28;20084;-72
2023/04/01 06:10:45;;;;;;;28.20;12.90;;;;;;;11.20;nan;99185.47;4982718;28;20384;-72
2023/04/01 06:14:05;;;;;;;19.55;9.73;;;;;;;11.35;nan;99197.09;4987591;28;20054;-71
2023/04/01 06:16:36;;;;;;;15.57;9.77;;;;;;;11.35;nan;99179.47;4931800;29;20054;-72
2023/04/01 06:19:19;;;;;;;15.82;9.02;;;;;;;11.32;nan;99179.97;4929191;29;20039;-72
2023/04/01 06:22:07;;;;;;;16.55;8.65;;;;;;;11.26;nan;99184.44;4934296;29;20031;-72
2023/04/01 06:24:51;;;;;;;17.23;8.90;;;;;;;11.17;nan;99183.34;4911636;29;20512;-72
2023/04/01 06:27:38;;;;;;;16.90;9.20;;;;;;;11.10;nan;99179.38;4931902;29;20067;-72
2023/04/01 06:30:20;;;;;;;17.23;8.57;;;;;;;11.01;nan;99171.16;4931303;29;20039;-71
2023/04/01 06:32:51;;;;;;;13.55;8.65;;;;;;;11.04;nan;99165.41;4910931;29;20039;-72
2023/04/01 06:35:45;;;;;;;20.95;11.38;;;;;;;11.13;nan;99170.94;4911456;29;20031;-72
2023/04/01 06:38:30;;;;;;;23.50;10.15;;;;;;;11.26;nan;99163.34;4928906;29;20055;-72
2023/04/01 06:41:40;;;;;;;16.17;8.52;;;;;;;11.45;nan;99155.75;4932682;29;20130;-72
2023/04/01 06:44:44;;;;;;;15.18;9.52;;;;;;;11.53;nan;99165.00;4931081;29;20698;-72
2023/04/01 06:47:28;;;;;;;16.08;7.68;;;;;;;11.52;nan;99165.25;4918829;29;20044;-73
2023/04/01 06:50:15;;;;;;;15.73;8.95;;;;;;;11.48;nan;99162.34;4929263;29;20032;-72
2023/04/01 06:52:59;;;;;;;15.73;8.82;;;;;;;11.54;nan;99173.69;4962786;28;20567;-73
2023/04/01 06:55:32;;;;;;;16.23;9.52;;;;;;;11.92;nan;99233.13;4984435;28;20035;-72
2023/04/01 06:58:01;;;;;;;18.35;10.30;;;;;;;11.59;nan;99171.06;4990499;28;20026;-72
2023/04/01 07:00:32;;;;;;;85.45;25.48;;;;;;;11.62;nan;99171.34;4985838;28;20695;-72
2023/04/01 07:03:22;;;;;;;143.40;41.20;;;;;;;11.63;nan;99174.75;4986068;28;20034;-70
2023/04/01 07:05:48;;;;;;;82.72;26.13;;;;;;;11.62;nan;99181.09;4985263;28;20620;-72
2023/04/01 07:08:21;;;;;;;56.15;23.38;;;;;;;11.61;nan;99179.50;4990683;28;20038;-73
2023/04/01 07:11:01;;;;;;;31.15;16.08;;;;;;;11.56;nan;99175.00;4985591;28;20054;-73
2023/04/01 07:13:34;;;;;;;25.10;14.50;;;;;;;11.51;nan;99169.72;4988642;28;20077;-72
2023/04/01 07:16:11;;;;;;;24.05;15.60;;;;;;;11.50;nan;99168.16;4988744;28;20441;-72
2023/04/01 07:18:45;;;;;;;26.15;15.10;;;;;;;11.48;nan;99176.31;4993116;28;20082;-71
2023/04/01 07:21:44;;;;;;;23.35;13.77;;;;;;;11.40;nan;99178.69;4990052;28;20065;-72
2023/04/01 07:24:17;;;;;;;24.42;13.00;;;;;;;11.32;nan;99179.97;4988502;28;20396;-72
2023/04/01 07:26:43;;;;;;;18.42;12.23;;;;;;;11.20;nan;99169.66;4989752;28;20488;-72
2023/04/01 07:29:14;;;;;;;21.83;12.07;;;;;;;11.23;nan;99171.78;4989671;28;20026;-72
2023/04/01 07:31:58;;;;;;;20.10;12.65;;;;;;;11.27;nan;99190.50;4988918;28;20129;-71
2023/04/01 07:34:28;;;;;;;25.65;14.48;;;;;;;11.10;nan;99190.69;4992345;28;20453;-74
2023/04/01 07:37:08;;;;;;;23.63;13.15;;;;;;;11.06;nan;99192.25;4992281;28;20556;-73
2023/04/01 07:40:11;;;;;;;22.17;13.73;;;;;;;11.00;nan;99185.41;4991906;28;20062;-73
2023/04/01 07:42:39;;;;;;;19.85;13.48;;;;;;;10.83;nan;99185.59;4999233;28;20033;-73
2023/04/01 07:45:08;;;;;;;24.30;14.80;;;;;;;10.80;nan;99194.00;4987711;28;20037;-73
2023/04/01 07:47:39;;;;;;;23.20;14.73;;;;;;;10.75;nan;99189.50;4990572;28;20026;-73
2023/04/01 07:50:13;;;;;;;26.08;16.05;;;;;;;10.80;nan;99191.38;4990206;28;20018;-73
2023/04/01 07:52:44;;;;;;;22.58;14.63;;;;;;;10.78;nan;99181.09;4988875;28;20038;-73
2023/04/01 07:55:19;;;;;;;23.98;15.38;;;;;;;10.74;nan;99173.94;4990281;28;20058;-73
2023/04/01 07:58:09;;;;;;;28.60;14.52;;;;;;;10.72;nan;99178.69;4980682;28;20038;-73
2023/04/01 08:00:58;;;;;;;25.13;14.88;;;;;;;10.69;nan;99174.72;4989959;28;20034;-73
2023/04/01 08:03:38;;;;;;;;;;;;;;;10.64;nan;99177.31;4982269;28;20037;-73
2023/04/01 08:06:15;;;;;;;20.75;11.30;;;;;;;10.59;nan;99172.03;4988642;28;20341;-73
2023/04/01 08:08:56;;;;;;;20.30;11.15;;;;;;;10.60;nan;99168.34;4991850;28;20052;-74
2023/04/01 08:11:50;;;;;;;18.00;10.23;;;;;;;10.51;nan;99156.69;4991552;28;20038;-73
2023/04/01 08:14:33;;;;;;;17.38;10.18;;;;;;;10.46;nan;99143.53;4989645;28;20093;-73
2023/04/01 08:17:25;;;;;;;16.02;9.32;;;;;;;10.51;nan;99154.88;4986046;28;20054;-73
2023/04/01 08:20:10;;;;;;;10.13;6.35;;;;;;;10.18;nan;99108.63;4989891;28;20511;-73
2023/04/01 08:23:03;;;;;;;12.77;6.45;;;;;;;10.23;nan;99114.69;4987248;28;20042;-73
2023/04/01 08:25:30;;;;;;;13.35;6.97;;;;;;;10.45;nan;99147.22;4988416;28;20087;-73
2023/04/01 08:28:25;;;;;;;10.73;7.60;;;;;;;10.45;nan;99140.09;4990492;28;20543;-73
2023/04/01 08:31:02;;;;;;;11.30;6.57;;;;;;;10.43;nan;99144.81;4931982;29;20054;-73
2023/04/01 08:33:32;;;;;;;7.75;4.38;;;;;;;10.50;nan;99152.50;4928650;29;20043;-74
2023/04/01 08:36:08;;;;;;;6.88;3.92;;;;;;;10.40;nan;99151.38;4910669;29;20043;-73
2023/04/01 08:38:55;;;;;;;7.25;3.80;;;;;;;10.34;nan;99146.34;4929075;29;20035;-73
2023/04/01 08:41:27;;;;;;;7.80;4.30;;;;;;;10.35;nan;99146.09;4929598;29;20047;-73
2023/04/01 08:44:19;;;;;;;7.53;4.50;;;;;;;10.08;nan;99103.25;4925118;29;20055;-73
2023/04/01 08:46:44;;;;;;;10.50;5.03;;;;;;;10.36;nan;99155.56;4926925;29;20039;-73
2023/04/01 08:49:49;;;;;;;8.57;5.10;;;;;;;10.39;nan;99159.53;4928720;29;20035;-73
2023/04/01 08:52:37;;;;;;;8.38;5.47;;;;;;;10.38;nan;99152.69;4915678;29;20295;-69
2023/04/01 08:55:15;;;;;;;9.00;5.60;;;;;;;10.50;nan;99155.91;4921765;29;20039;-76
2023/04/01 08:58:11;;;;;;;9.68;5.35;;;;;;;10.55;nan;99163.84;4925615;29;20399;-73
2023/04/01 09:01:08;;;;;;;7.35;4.80;;;;;;;10.51;nan;99167.22;4928258;29;20154;-74
2023/04/01 09:03:57;;;;;;;8.57;3.90;;;;;;;10.43;nan;99176.41;4926692;29;20478;-74
2023/04/01 09:06:31;;;;;;;11.57;6.07;;;;;;;10.42;nan;99177.47;4929244;29;20035;-73
2023/04/01 09:08:57;;;;;;;13.70;6.93;;;;;;;10.43;nan;99182.44;4984433;28;20043;-73
2023/04/01 09:11:44;;;;;;;14.23;8.23;;;;;;;10.45;nan;99184.06;4988051;28;20030;-74
2023/04/01 09:14:47;;;;;;;15.65;8.25;;;;;;;10.45;nan;99174.31;4986784;28;20507;-73
2023/04/01 09:17:49;;;;;;;10.60;6.30;;;;;;;10.41;nan;99174.03;4989774;28;20053;-74
2023/04/01 09:20:46;;;;;;;7.25;3.97;;;;;;;10.43;nan;99177.19;4984535;28;20038;-74
2023/04/01 09:23:23;;;;;;;8.52;4.78;;;;;;;10.47;nan;99176.72;4987783;28;20034;-74
2023/04/01 09:26:14;;;;;;;12.50;5.95;;;;;;;10.48;nan;99170.38;4983997;28;20037;-73
2023/04/01 09:28:58;;;;;;;9.93;5.43;;;;;;;10.53;nan;99175.66;4988290;28;20092;-74
2023/04/01 09:31:42;;;;;;;6.63;4.43;;;;;;;10.55;nan;99176.22;4988447;28;20030;-74
2023/04/01 09:34:24;;;;;;;8.50;3.83;;;;;;;10.55;nan;99173.59;4984464;28;20045;-74
2023/04/01 09:36:57;;;;;;;6.72;4.18;;;;;;;10.41;nan;99152.19;4985012;28;20954;-74
2023/04/01 09:39:23;;;;;;;11.57;4.70;;;;;;;10.54;nan;99164.13;4987315;28;20101;-74
2023/04/01 09:42:00;;;;;;;9.70;5.13;;;;;;;10.53;nan;99163.28;4986537;28;20984;-73
2023/04/01 09:44:32;;;;;;;10.50;5.05;;;;;;;10.53;nan;99154.63;4977214;28;20048;-74
2023/04/01 09:47:21;;;;;;;8.20;4.68;;;;;;;10.53;nan;99163.28;4983600;28;20104;-73
2023/04/01 09:49:59;;;;;;;6.47;4.07;;;;;;;10.56;nan;99164.63;4984689;28;20030;-73
2023/04/01 09:52:56;;;;;;;11.60;6.32;;;;;;;10.53;nan;99158.03;4987736;28;20449;-72
2023/04/01 09:55:22;;;;;;;11.70;6.03;;;;;;;10.63;nan;99167.81;4985000;28;20065;-73
2023/04/01 09:58:00;;;;;;;10.07;5.03;;;;;;;10.50;nan;99140.13;4984856;28;20480;-73
2023/04/01 10:00:47;;;;;;;9.80;5.40;;;;;;;10.63;nan;99158.13;4983775;28;20034;-73
2023/04/01 10:03:41;;;;;;;8.73;5.47;;;;;;;10.61;nan;99151.53;4988110;28;20034;-73
2023/04/01 10:06:25;;;;;;;14.50;7.00;;;;;;;10.67;nan;99145.22;4986918;28;20037;-74
2023/04/01 10:09:11;;;;;;;10.32;6.03;;;;;;;10.70;nan;99144.69;4978480;28;20034;-73
2023/04/01 10:11:58;;;;;;;11.23;5.60;;;;;;;10.71;nan;99145.50;4987841;28;20026;-73
2023/04/01 10:14:47;;;;;;;9.07;5.22;;;;;;;10.75;nan;99149.19;4986949;28;20037;-73
2023/04/01 10:17:16;;;;;;;12.85;6.05;;;;;;;10.77;nan;99150.53;4985217;28;20026;-73
2023/04/01 10:19:59;;;;;;;9.43;5.60;;;;;;;10.78;nan;99146.84;4986088;28;20023;-73
2023/04/01 10:22:40;;;;;;;11.02;6.65;;;;;;;10.81;nan;99145.56;4984849;28;20085;-73
2023/04/01 10:25:24;;;;;;;18.40;10.13;;;;;;;10.84;nan;99148.44;4984865;28;20117;-73
2023/04/01 10:27:58;;;;;;;12.90;7.22;;;;;;;10.79;nan;99142.38;4987319;28;20377;-73
2023/04/01 10:31:14;;;;;;;14.52;8.32;;;;;;;10.81;nan;99151.59;4986600;28;20507;-70
2023/04/01 10:34:21;;;;;;;14.32;7.30;;;;;;;10.81;nan;99146.34;4957844;28;20039;-73
2023/04/01 10:36:53;;;;;;;11.85;6.63;;;;;;;10.84;nan;99142.38;4903784;29;20040;-73
2023/04/01 10:39:52;;;;;;;11.25;6.68;;;;;;;10.85;nan;99144.00;4906736;29;20115;-73
2023/04/01 10:42:23;;;;;;;12.88;7.25;;;;;;;10.88;nan;99140.84;4910067;29;20668;-73
2023/04/01 10:45:16;;;;;;;26.45;9.68;;;;;;;10.88;nan;99138.19;4905922;29;20446;-73
2023/04/01 10:48:15;;;;;;;17.38;8.60;;;;;;;10.78;nan;99136.31;4915327;29;20068;-73
2023/04/01 10:51:10;;;;;;;29.13;12.07;;;;;;;10.80;nan;99134.22;4912328;29;20035;-73
2023/04/01 10:53:42;;;;;;;23.17;8.80;;;;;;;10.85;nan;99138.72;4911797;29;20031;-69
2023/04/01 10:56:29;;;;;;;16.00;7.18;;;;;;;10.89;nan;99141.63;4914009;29;20029;-69
2023/04/01 10:59:23;;;;;;;11.63;6.85;;;;;;;10.83;nan;99125.81;4913545;29;20063;-69
2023/04/01 11:02:45;;;;;;;12.20;6.85;;;;;;;10.95;nan;99138.75;4913286;29;20087;-69
2023/04/01 11:05:33;;;;;;;11.07;6.28;;;;;;;10.92;nan;99135.84;4855054;29;20124;-69
2023/04/01 11:08:25;;;;;;;9.45;6.00;;;;;;;10.92;nan;99130.56;4859001;29;20594;-69
2023/04/01 11:10:53;;;;;;;9.32;6.15;;;;;;;10.90;nan;99127.41;4841393;29;20595;-68
2023/04/01 11:13:40;;;;;;;10.30;6.63;;;;;;;10.89;nan;99116.06;4879534;29;20574;-68
2023/04/01 11:16:39;;;;;;;12.20;7.65;;;;;;;10.89;nan;99125.81;4935503;29;20043;-68
2023/04/01 11:19:35;;;;;;;10.23;7.35;;;;;;;10.88;nan;99119.75;4937964;29;20471;-69
2023/04/01 11:22:29;;;;;;;13.23;8.75;;;;;;;10.89;nan;99121.34;4920477;29;20900;-69
2023/04/01 11:25:15;;;;;;;17.15;8.32;;;;;;;10.92;nan;99122.66;4939101;29;20038;-69
2023/04/01 11:28:35;;;;;;;12.05;7.43;;;;;;;10.90;nan;99130.84;4935749;29;20034;-70
2023/04/01 11:31:21;;;;;;;11.63;7.38;;;;;;;10.85;nan;99115.03;4916898;29;20594;-69
2023/04/01 11:34:10;;;;;;;10.60;7.13;;;;;;;10.80;nan;99115.78;4914750;29;20066;-70
2023/04/01 11:36:52;;;;;;;9.73;5.65;;;;;;;10.67;nan;99118.88;4958380;28;20031;-69
2023/04/01 11:39:32;;;;;;;7.70;4.85;;;;;;;10.61;nan;99117.28;4973703;28;20050;-70
2023/04/01 11:42:15;;;;;;;6.47;4.22;;;;;;;10.54;nan;99125.41;4966618;28;20038;-68
2023/04/01 11:45:00;;;;;;;8.20;4.18;;;;;;;10.44;nan;99122.75;4974429;28;20081;-69
2023/04/01 11:48:02;;;;;;;10.75;4.43;;;;;;;10.31;nan;99105.53;4971744;28;20523;-68
2023/04/01 11:51:04;;;;;;;8.77;4.80;;;;;;;10.33;nan;99108.72;4970834;28;20062;-69
2023/04/01 11:53:51;;;;;;;8.27;4.53;;;;;;;10.09;nan;99089.88;4969484;28;20121;-68
2023/04/01 11:56:48;;;;;;;8.38;4.35;;;;;;;10.34;nan;99126.09;4967891;28;20121;-68
2023/04/01 11:59:30;;;;;;;5.85;4.10;;;;;;;10.34;nan;99127.91;4967180;28;20039;-68
2023/04/01 12:02:13;;;;;;;8.20;5.00;;;;;;;10.31;nan;99128.44;4948782;28;20452;-68
2023/04/01 12:04:45;;;;;;;10.20;5.68;;;;;;;10.29;nan;99118.16;4974341;28;20535;-68
2023/04/01 12:07:27;;;;;;;11.18;5.90;;;;;;;10.34;nan;99131.38;4983312;28;20062;-68
2023/04/01 12:09:57;;;;;;;12.48;6.15;;;;;;;10.06;nan;99086.97;5006619;28;20093;-74
2023/04/01 12:12:57;;;;;;;13.20;6.55;;;;;;;10.31;nan;99126.59;4986208;28;20050;-73
2023/04/01 12:15:34;;;;;;;14.00;7.88;;;;;;;10.31;nan;99134.50;4989452;28;20088;-69
2023/04/01 12:18:32;;;;;;;11.30;6.40;;;;;;;10.33;nan;99132.41;4980859;28;20694;-69
2023/04/01 12:21:08;;;;;;;12.25;6.40;;;;;;;10.32;nan;99143.16;4940927;28;20059;-68
2023/04/01 12:23:52;;;;;;;8.45;4.65;;;;;;;10.26;nan;99134.44;4943041;28;20034;-70